createdAt,value
2018-06-12T00:02:27.269Z,100546.08
2018-06-12T00:05:32.376Z,100542.78
2018-06-12T00:08:37.448Z,100543.72
2018-06-12T00:11:43.224Z,100531.95
2018-06-12T00:14:48.472Z,100540.97
2018-06-12T00:17:54.643Z,100539.36
2018-06-12T00:20:59.776Z,100533.90
2018-06-12T00:24:05.806Z,100528.83
2018-06-12T00:27:11.431Z,100526.95
2018-06-12T00:30:17.477Z,100517.30
2018-06-12T00:33:23.306Z,100517.42
2018-06-12T00:36:28.426Z,100514.24
2018-06-12T00:39:33.964Z,100513.23
2018-06-12T00:42:41.007Z,100509.53
2018-06-12T00:45:47.157Z,100507.30
2018-06-12T00:48:53.308Z,100506.01
2018-06-12T00:51:58.404Z,100506.76
2018-06-12T00:55:04.459Z,100500.29
2018-06-12T00:58:10.196Z,100505.66
2018-06-12T01:01:15.290Z,100505.58
2018-06-12T01:04:21.440Z,100509.34
2018-06-12T01:07:27.077Z,100508.05
2018-06-12T01:10:32.959Z,100498.91
2018-06-12T01:13:37.796Z,100500.88
2018-06-12T01:16:43.396Z,100494.23
2018-06-12T01:19:48.202Z,100500.46
2018-06-12T01:22:54.520Z,100504.66
2018-06-12T01:26:00.560Z,100505.05
2018-06-12T01:29:07.600Z,100503.05
2018-06-12T01:32:13.245Z,100508.23
2018-06-12T01:35:19.109Z,100508.58
2018-06-12T01:38:25.477Z,100510.94
2018-06-12T01:41:31.849Z,100512.46
2018-06-12T01:44:37.184Z,100515.83
2018-06-12T01:47:42.296Z,100515.09
2018-06-12T01:50:47.382Z,100513.80
2018-06-12T01:53:53.193Z,100508.74
2018-06-12T01:56:58.300Z,100499.88
2018-06-12T02:00:04.561Z,100505.11
2018-06-12T02:03:09.716Z,100514.11
2018-06-12T02:06:15.477Z,100517.97
2018-06-12T02:09:21.626Z,100513.56
2018-06-12T02:12:26.883Z,100518.40
2018-06-12T02:15:32.150Z,100519.56
2018-06-12T02:18:37.241Z,100524.69
2018-06-12T02:21:42.333Z,100519.98
2018-06-12T02:24:47.451Z,100526.11
2018-06-12T02:27:52.961Z,100524.38
2018-06-12T02:30:58.283Z,100517.58
2018-06-12T02:34:04.322Z,100519.98
2018-06-12T02:37:09.997Z,100515.33
2018-06-12T02:40:14.904Z,100515.63
2018-06-12T02:43:21.577Z,100528.34
2018-06-12T02:46:27.261Z,100512.58
2018-06-12T02:49:32.095Z,100511.51
2018-06-12T02:52:37.146Z,100508.09
2018-06-12T02:55:42.769Z,100505.62
2018-06-12T02:58:47.901Z,100504.39
2018-06-12T03:01:53.094Z,100496.33
2018-06-12T03:04:57.953Z,100498.20
2018-06-12T03:08:03.050Z,100492.78
2018-06-12T03:11:09.490Z,100501.14
2018-06-12T03:14:15.552Z,100492.50
2018-06-12T03:17:21.760Z,100496.03
2018-06-12T03:20:38.830Z,100489.39
2018-06-12T03:23:45.422Z,100490.08
2018-06-12T03:26:50.953Z,100497.73
2018-06-12T03:29:56.961Z,100493.50
2018-06-12T03:33:02.027Z,100496.80
2018-06-12T03:36:08.173Z,100494.09
2018-06-12T03:39:13.347Z,100492.92
2018-06-12T03:42:18.773Z,100492.45
2018-06-12T03:45:23.590Z,100490.14
2018-06-12T03:48:29.862Z,100492.86
2018-06-12T03:51:34.995Z,100502.49
2018-06-12T03:54:41.150Z,100491.98
2018-06-12T03:57:46.281Z,100493.44
2018-06-12T04:00:52.901Z,100489.56
2018-06-12T04:03:58.177Z,100497.31
2018-06-12T04:07:03.289Z,100498.61
2018-06-12T04:10:09.368Z,100502.84
2018-06-12T04:13:15.426Z,100496.61
2018-06-12T04:16:20.556Z,100496.38
2018-06-12T04:19:25.624Z,100506.14
2018-06-12T04:22:30.733Z,100508.16
2018-06-12T04:25:35.846Z,100513.62
2018-06-12T04:28:41.977Z,100507.52
2018-06-12T04:31:48.041Z,100509.52
2018-06-12T04:34:53.180Z,100513.17
2018-06-12T04:37:58.278Z,100514.86
2018-06-12T04:41:03.882Z,100521.68
2018-06-12T04:44:09.203Z,100516.86
2018-06-12T04:47:14.629Z,100515.45
2018-06-12T04:50:20.483Z,100512.40
2018-06-12T04:53:26.300Z,100518.28
2018-06-12T04:56:31.786Z,100507.00
2018-06-12T04:59:36.866Z,100509.94
2018-06-12T05:02:41.998Z,100512.06
2018-06-12T05:05:48.048Z,100512.33
2018-06-12T05:08:53.873Z,100504.92
2018-06-12T05:12:00.187Z,100512.11
2018-06-12T05:15:05.044Z,100513.76
2018-06-12T05:18:10.956Z,100522.23
2018-06-12T05:21:16.713Z,100524.34
2018-06-12T05:24:22.567Z,100522.36
2018-06-12T05:27:28.454Z,100513.30
2018-06-12T05:30:34.491Z,100514.98
2018-06-12T05:33:39.652Z,100507.10
2018-06-12T05:36:45.078Z,100513.81
2018-06-12T05:39:51.112Z,100514.44
2018-06-12T05:42:56.233Z,100515.62
2018-06-12T05:46:01.964Z,100512.02
2018-06-12T05:49:08.989Z,100518.61
2018-06-12T05:52:15.629Z,100523.09
2018-06-12T05:55:21.055Z,100522.77
2018-06-12T05:58:28.085Z,100519.13
2018-06-12T06:01:34.101Z,100527.84
2018-06-12T06:04:39.867Z,100521.28
2018-06-12T06:07:44.992Z,100529.17
2018-06-12T06:10:50.333Z,100520.81
2018-06-12T06:13:56.433Z,100525.77
2018-06-12T06:17:02.543Z,100529.09
2018-06-12T06:20:08.757Z,100524.27
2018-06-12T06:23:14.810Z,100521.80
2018-06-12T06:26:19.905Z,100521.21
2018-06-12T06:29:25.885Z,100526.16
2018-06-12T06:32:32.911Z,100524.42
2018-06-12T06:35:38.878Z,100519.13
2018-06-12T06:38:43.997Z,100520.19
2018-06-12T06:41:49.100Z,100519.86
2018-06-12T06:44:54.241Z,100524.92
2018-06-12T06:47:59.266Z,100524.22
2018-06-12T06:51:05.811Z,100524.48
2018-06-12T06:54:12.628Z,100527.30
2018-06-12T06:57:18.657Z,100531.90
2018-06-12T07:00:23.832Z,100531.30
2018-06-12T07:03:29.707Z,100537.20
2018-06-12T07:06:35.830Z,100538.28
2018-06-12T07:09:41.678Z,100541.58
2018-06-12T07:12:47.357Z,100546.64
2018-06-12T07:15:52.490Z,100544.64
2018-06-12T07:18:59.329Z,100549.58
2018-06-12T07:22:04.476Z,100546.55
2018-06-12T07:25:11.326Z,100549.26
2018-06-12T07:28:17.162Z,100549.14
2018-06-12T07:31:23.533Z,100555.03
2018-06-12T07:34:28.657Z,100556.67
2018-06-12T07:37:33.904Z,100554.78
2018-06-12T07:40:40.090Z,100551.28
2018-06-12T07:43:45.200Z,100551.16
2018-06-12T07:46:51.208Z,100555.31
2018-06-12T07:49:56.533Z,100555.31
2018-06-12T07:53:02.341Z,100557.44
2018-06-12T07:56:08.353Z,100555.66
2018-06-12T07:59:13.452Z,100556.37
2018-06-12T08:02:18.570Z,100554.95
2018-06-12T08:05:24.709Z,100551.06
2018-06-12T08:08:29.824Z,100557.80
2018-06-12T08:11:34.930Z,100548.14
2018-06-12T08:14:40.025Z,100551.08
2018-06-12T08:17:46.140Z,100558.14
2018-06-12T08:20:51.824Z,100559.32
2018-06-12T08:23:58.912Z,100565.80
2018-06-12T08:27:05.181Z,100562.65
2018-06-12T08:30:11.396Z,100569.13
2018-06-12T08:33:17.669Z,100571.13
2018-06-12T08:36:22.817Z,100573.48
2018-06-12T08:39:28.529Z,100579.14
2018-06-12T08:42:33.600Z,100572.54
2018-06-12T08:45:39.433Z,100571.47
2018-06-12T08:48:45.456Z,100573.38
2018-06-12T08:51:50.547Z,100569.59
2018-06-12T08:54:56.610Z,100577.48
2018-06-12T08:58:02.321Z,100584.23
2018-06-12T09:01:08.441Z,100578.56
2018-06-12T09:04:15.448Z,100570.66
2018-06-12T09:07:20.558Z,100570.41
2018-06-12T09:10:26.113Z,100569.59
2018-06-12T09:13:32.297Z,100578.55
2018-06-12T09:16:38.894Z,100574.53
2018-06-12T09:19:44.145Z,100571.94
2018-06-12T09:22:49.691Z,100571.81
2018-06-12T09:25:55.924Z,100578.56
2018-06-12T09:29:00.997Z,100577.97
2018-06-12T09:32:06.129Z,100574.77
2018-06-12T09:35:11.204Z,100574.17
2018-06-12T09:38:16.299Z,100578.20
2018-06-12T09:41:21.409Z,100574.19
2018-06-12T09:44:27.502Z,100580.77
2018-06-12T09:47:33.044Z,100588.56
2018-06-12T09:50:38.150Z,100584.20
2018-06-12T09:53:44.234Z,100594.45
2018-06-12T09:56:49.345Z,100587.02
2018-06-12T09:59:55.432Z,100592.08
2018-06-12T10:03:01.450Z,100593.98
2018-06-12T10:06:07.469Z,100591.49
2018-06-12T10:09:12.581Z,100587.73
2018-06-12T10:12:18.684Z,100595.61
2018-06-12T10:15:24.736Z,100591.95
2018-06-12T10:18:31.123Z,100598.92
2018-06-12T10:21:37.075Z,100599.02
2018-06-12T10:24:42.212Z,100599.87
2018-06-12T10:27:48.237Z,100595.25
2018-06-12T10:30:53.509Z,100592.74
2018-06-12T10:33:58.613Z,100599.84
2018-06-12T10:37:05.083Z,100598.89
2018-06-12T10:40:10.925Z,100606.20
2018-06-12T10:43:16.025Z,100596.03
2018-06-12T10:46:21.637Z,100598.03
2018-06-12T10:49:26.717Z,100594.83
2018-06-12T10:52:31.981Z,100604.75
2018-06-12T10:55:38.077Z,100602.02
2018-06-12T10:58:43.705Z,100604.62
2018-06-12T11:01:49.320Z,100608.30
2018-06-12T11:04:54.447Z,100606.30
2018-06-12T11:07:59.898Z,100612.80
2018-06-12T11:11:05.008Z,100605.69
2018-06-12T11:14:11.021Z,100607.69
2018-06-12T11:17:17.138Z,100601.41
2018-06-12T11:20:23.309Z,100611.08
2018-06-12T11:23:28.823Z,100613.19
2018-06-12T11:26:33.917Z,100609.03
2018-06-12T11:29:39.008Z,100603.96
2018-06-12T11:32:44.105Z,100607.25
2018-06-12T11:35:50.581Z,100600.97
2018-06-12T11:38:56.605Z,100599.89
2018-06-12T11:42:01.701Z,100595.63
2018-06-12T11:45:06.809Z,100603.39
2018-06-12T11:48:11.936Z,100600.52
2018-06-12T11:51:17.049Z,100597.70
2018-06-12T11:54:22.113Z,100602.98
2018-06-12T11:57:27.884Z,100601.20
2018-06-12T12:00:33.928Z,100592.36
2018-06-12T12:03:38.782Z,100591.97
2018-06-12T12:06:43.878Z,100596.94
2018-06-12T12:09:49.965Z,100596.67
2018-06-12T12:12:56.001Z,100598.67
2018-06-12T12:16:01.947Z,100588.48
2018-06-12T12:19:07.292Z,100592.39
2018-06-12T12:22:13.097Z,100589.53
2018-06-12T12:25:18.161Z,100594.94
2018-06-12T12:28:22.968Z,100604.73
2018-06-12T12:31:28.074Z,100601.21
2018-06-12T12:34:33.174Z,100605.45
2018-06-12T12:37:38.277Z,100600.25
2018-06-12T12:40:43.393Z,100604.37
2018-06-12T12:43:48.470Z,100598.90
2018-06-12T12:46:53.621Z,100600.17
2018-06-12T12:49:58.717Z,100603.67
2018-06-12T12:53:04.827Z,100595.02
2018-06-12T12:56:10.258Z,100594.27
2018-06-12T12:59:16.487Z,100589.01
2018-06-12T13:02:22.269Z,100600.96
2018-06-12T13:05:28.359Z,100596.66
2018-06-12T13:08:33.921Z,100602.20
2018-06-12T13:11:38.744Z,100605.77
2018-06-12T13:14:43.817Z,100606.72
2018-06-12T13:17:49.638Z,100609.25
2018-06-12T13:20:55.248Z,100600.72
2018-06-12T13:24:02.116Z,100601.81
2018-06-12T13:27:07.244Z,100603.73
2018-06-12T13:30:13.070Z,100599.48
2018-06-12T13:33:18.165Z,100593.93
2018-06-12T13:36:23.589Z,100599.13
2018-06-12T13:39:29.521Z,100593.80
2018-06-12T13:42:35.537Z,100598.87
2018-06-12T13:45:42.033Z,100600.64
2018-06-12T13:48:48.992Z,100599.69
2018-06-12T13:51:54.917Z,100598.05
2018-06-12T13:55:00.933Z,100599.21
2018-06-12T13:58:06.078Z,100596.61
2018-06-12T14:01:11.165Z,100590.84
2018-06-12T14:04:17.277Z,100602.35
2018-06-12T14:07:22.446Z,100587.86
2018-06-12T14:10:28.556Z,100600.86
2018-06-12T14:13:33.745Z,100600.52
2018-06-12T14:16:39.512Z,100593.22
2018-06-12T14:19:45.624Z,100590.19
2018-06-12T14:22:52.201Z,100597.55
2018-06-12T14:25:57.312Z,100591.86
2018-06-12T14:29:03.253Z,100591.78
2018-06-12T14:32:09.289Z,100591.09
2018-06-12T14:35:14.416Z,100599.84
2018-06-12T14:38:20.058Z,100594.55
2018-06-12T14:41:27.048Z,100597.17
2018-06-12T14:44:33.082Z,100590.45
2018-06-12T14:47:39.158Z,100592.71
2018-06-12T14:50:44.245Z,100590.94
2018-06-12T14:53:49.835Z,100592.58
2018-06-12T14:56:54.964Z,100596.48
2018-06-12T15:00:01.090Z,100595.31
2018-06-12T15:03:06.421Z,100591.67
2018-06-12T15:06:11.969Z,100585.65
2018-06-12T15:09:17.085Z,100588.48
2018-06-12T15:12:24.418Z,100584.92
2018-06-12T15:15:30.362Z,100581.98
2018-06-12T15:18:35.785Z,100563.30
2018-06-12T15:21:41.890Z,100569.80
2018-06-12T15:24:49.065Z,100577.84
2018-06-12T15:27:55.082Z,100575.48
2018-06-12T15:31:01.098Z,100578.56
2018-06-12T15:34:07.144Z,100575.61
2018-06-12T15:37:12.293Z,100578.95
2018-06-12T15:40:18.229Z,100573.88
2018-06-12T15:43:23.325Z,100575.06
2018-06-12T15:46:28.493Z,100572.59
2018-06-12T15:49:34.839Z,100569.04
2018-06-12T15:52:40.778Z,100567.18
2018-06-12T15:55:46.649Z,100562.11
2018-06-12T15:58:52.519Z,100562.72
2018-06-12T16:01:57.720Z,100569.22
2018-06-12T16:05:02.841Z,100563.67
2018-06-12T16:08:08.982Z,100565.92
2018-06-12T16:11:14.680Z,100564.98
2018-06-12T16:14:20.277Z,100559.91
2018-06-12T16:17:25.382Z,100560.05
2018-06-12T16:20:30.523Z,100566.67
2018-06-12T16:23:35.625Z,100561.12
2018-06-12T16:26:41.164Z,100562.31
2018-06-12T16:29:46.460Z,100558.41
2018-06-12T16:32:51.603Z,100561.88
2018-06-12T16:35:56.797Z,100553.73
2018-06-12T16:39:02.761Z,100554.33
2018-06-12T16:42:07.965Z,100558.11
2018-06-12T16:45:13.156Z,100553.39
2018-06-12T16:48:18.323Z,100547.28
2018-06-12T16:51:23.489Z,100546.20
2018-06-12T16:54:29.377Z,100552.00
2018-06-12T16:57:34.497Z,100549.79
2018-06-12T17:00:39.745Z,100544.72
2018-06-12T17:03:46.774Z,100547.55
2018-06-12T17:06:52.288Z,100558.88
2018-06-12T17:09:59.285Z,100554.64
2018-06-12T17:13:04.936Z,100557.59
2018-06-12T17:16:10.496Z,100551.31
2018-06-12T17:19:16.346Z,100553.22
2018-06-12T17:22:22.524Z,100555.11
2018-06-12T17:25:27.699Z,100555.69
2018-06-12T17:28:34.527Z,100562.78
2018-06-12T17:31:39.613Z,100560.44
2018-06-12T17:34:44.797Z,100559.27
2018-06-12T17:37:50.959Z,100562.33
2018-06-12T17:40:57.148Z,100561.03
2018-06-12T17:44:02.438Z,100560.94
2018-06-12T17:47:08.510Z,100572.27
2018-06-12T17:50:14.611Z,100557.64
2018-06-12T17:53:19.924Z,100563.91
2018-06-12T17:56:25.044Z,100557.29
2018-06-12T17:59:31.315Z,100552.70
2018-06-12T18:02:36.581Z,100557.41
2018-06-12T18:05:41.725Z,100569.22
2018-06-12T18:08:47.405Z,100558.48
2018-06-12T18:11:52.681Z,100542.69
2018-06-12T18:14:57.822Z,100544.94
2018-06-12T18:18:03.051Z,100551.06
2018-06-12T18:21:08.579Z,100548.13
2018-06-12T18:24:14.658Z,100546.82
2018-06-12T18:27:21.266Z,100544.92
2018-06-12T18:30:27.263Z,100543.75
2018-06-12T18:33:32.642Z,100547.28
2018-06-12T18:36:37.785Z,100548.25
2018-06-12T18:39:43.357Z,100550.97
2018-06-12T18:42:48.533Z,100546.13
2018-06-12T18:45:54.706Z,100550.72
2018-06-12T18:49:00.661Z,100549.44
2018-06-12T18:52:07.224Z,100539.88
2018-06-12T18:55:13.372Z,100551.89
2018-06-12T18:58:19.166Z,100552.16
2018-06-12T19:01:25.480Z,100548.00
2018-06-12T19:04:32.334Z,100542.81
2018-06-12T19:07:37.494Z,100542.46
2018-06-12T19:10:43.211Z,100545.77
2018-06-12T19:13:49.251Z,100541.78
2018-06-12T19:16:55.261Z,100546.97
2018-06-12T19:20:00.416Z,100550.72
2018-06-12T19:23:05.628Z,100554.62
2018-06-12T19:26:12.401Z,100561.92
2018-06-12T19:29:18.116Z,100562.75
2018-06-12T19:32:23.273Z,100565.91
2018-06-12T19:35:28.394Z,100567.54
2018-06-12T19:38:34.643Z,100567.31
2018-06-12T19:41:41.047Z,100573.88
2018-06-12T19:44:47.897Z,100575.77
2018-06-12T19:47:53.746Z,100577.30
2018-06-12T19:51:00.216Z,100584.02
2018-06-12T19:54:05.708Z,100598.75
2018-06-12T19:57:11.489Z,100592.83
2018-06-12T20:00:17.573Z,100591.06
2018-06-12T20:03:30.093Z,100577.95
2018-06-12T20:06:35.682Z,100586.91
2018-06-12T20:09:40.801Z,100573.59
2018-06-12T20:12:47.080Z,100573.09
2018-06-12T20:15:53.732Z,100578.98
2018-06-12T20:19:00.659Z,100571.52
2018-06-12T20:22:06.919Z,100582.71
2018-06-12T20:25:14.473Z,100582.71
2018-06-12T20:28:20.514Z,100587.66
2018-06-12T20:31:26.341Z,100589.42
2018-06-12T20:34:32.444Z,100585.38
2018-06-12T20:37:38.590Z,100592.21
2018-06-12T20:40:44.653Z,100591.50
2018-06-12T20:43:50.606Z,100586.79
2018-06-12T20:46:56.431Z,100585.73
2018-06-12T20:50:01.778Z,100584.30
2018-06-12T20:53:07.910Z,100585.61
2018-06-12T20:56:14.973Z,100590.86
2018-06-12T20:59:20.236Z,100591.44
2018-06-12T21:02:26.774Z,100588.69
2018-06-12T21:05:32.802Z,100590.45
2018-06-12T21:08:39.930Z,100587.87
2018-06-12T21:11:45.586Z,100597.03
2018-06-12T21:14:50.677Z,100598.28
2018-06-12T21:17:55.790Z,100599.81
2018-06-12T21:21:01.885Z,100606.92
2018-06-12T21:24:07.401Z,100603.92
2018-06-12T21:27:12.854Z,100601.45
2018-06-12T21:30:18.757Z,100608.62
2018-06-12T21:33:23.917Z,100607.16
2018-06-12T21:36:29.330Z,100605.51
2018-06-12T21:39:34.957Z,100600.14
2018-06-12T21:42:41.073Z,100609.00
2018-06-12T21:45:46.152Z,100610.99
2018-06-12T21:48:51.761Z,100613.71
2018-06-12T21:51:57.695Z,100622.06
2018-06-12T21:55:04.721Z,100613.41
2018-06-12T21:58:10.680Z,100618.98
2018-06-12T22:01:15.821Z,100616.80
2018-06-12T22:04:20.620Z,100619.99
2018-06-12T22:07:25.706Z,100614.44
2018-06-12T22:10:30.801Z,100614.55
2018-06-12T22:13:36.430Z,100610.39
2018-06-12T22:16:42.525Z,100611.08
2018-06-12T22:19:48.314Z,100602.83
2018-06-12T22:22:54.661Z,100603.18
2018-06-12T22:26:00.569Z,100605.02
2018-06-12T22:29:06.053Z,100609.02
2018-06-12T22:32:11.192Z,100607.36
2018-06-12T22:35:16.444Z,100605.95
2018-06-12T22:38:22.653Z,100609.59
2018-06-12T22:41:27.800Z,100600.28
2018-06-12T22:44:33.211Z,100606.98
2018-06-12T22:47:38.361Z,100604.86
2018-06-12T22:50:44.257Z,100604.66
2018-06-12T22:53:49.984Z,100601.89
2018-06-12T22:56:55.411Z,100602.07
2018-06-12T23:00:01.409Z,100597.66
2018-06-12T23:03:06.471Z,100602.22
2018-06-12T23:06:12.430Z,100597.92
2018-06-12T23:09:18.422Z,100595.33
2018-06-12T23:12:23.533Z,100602.11
2018-06-12T23:15:29.209Z,100600.78
2018-06-12T23:18:35.083Z,100602.55
2018-06-12T23:21:51.852Z,100606.35
2018-06-12T23:24:58.370Z,100607.75
2018-06-12T23:28:04.123Z,100602.38
2018-06-12T23:31:09.177Z,100595.69
2018-06-12T23:34:15.648Z,100602.27
2018-06-12T23:37:22.294Z,100602.59
2018-06-12T23:40:28.242Z,100607.08
2018-06-12T23:43:33.331Z,100601.41
2018-06-12T23:46:38.773Z,100599.83
2018-06-12T23:49:44.590Z,100598.28
2018-06-12T23:52:49.672Z,100610.81
2018-06-12T23:55:54.468Z,100609.59
2018-06-12T23:59:01.187Z,100609.45
